Time;durP1;ratioP1;P1;durP2;ratioP2;P2;SDS_P1;SDS_P2;PMS_P1;PMS_P2;Temp;Humidity;BMP_temperature;BMP_pressure;BME280_temperature;BME280_humidity;BME280_pressure;Samples;Min_cycle;Max_cycle;Signal;HPM_P1;HPM_P2
2021/11/30 00:00:49;;;;;;;11.43;4.47;;;;;;;-1.31;99.02;95165.84;5029094;28;20563;-77
2021/11/30 00:03:15;;;;;;;10.52;4.45;;;;;;;-1.30;98.68;95167.44;5024696;28;20049;-77
2021/11/30 00:05:41;;;;;;;9.98;3.70;;;;;;;-1.37;99.83;95177.00;5008272;28;20419;-78
2021/11/30 00:08:07;;;;;;;9.52;4.03;;;;;;;-1.32;99.33;95179.78;5015151;28;20038;-77
2021/11/30 00:10:45;;;;;;;7.93;3.53;;;;;;;-1.38;98.46;95180.56;5011146;28;20578;-78
2021/11/30 00:13:19;;;;;;;7.03;3.80;;;;;;;-1.40;98.68;95182.56;5028387;28;20112;-77
2021/11/30 00:15:45;;;;;;;9.13;3.30;;;;;;;-1.27;97.51;95192.06;5011190;28;20041;-77
2021/11/30 00:18:11;;;;;;;5.22;2.75;;;;;;;-1.34;98.17;95202.41;5028171;28;20044;-78
2021/11/30 00:20:39;;;;;;;7.47;2.83;;;;;;;-1.29;97.91;95188.91;5028556;28;20033;-77
2021/11/30 00:23:05;;;;;;;6.60;2.85;;;;;;;-1.29;97.79;95200.03;5027162;28;20050;-78
2021/11/30 00:25:31;;;;;;;6.25;3.22;;;;;;;-1.28;98.25;95196.47;5021670;28;20568;-78
2021/11/30 00:27:56;;;;;;;5.22;2.95;;;;;;;-1.35;98.30;95206.00;5023574;28;20034;-77
2021/11/30 00:30:22;;;;;;;6.38;3.20;;;;;;;-1.34;98.20;95207.56;5002881;28;20038;-77
2021/11/30 00:32:49;;;;;;;6.00;3.30;;;;;;;-1.41;98.42;95196.47;5011884;28;20046;-77
2021/11/30 00:35:15;;;;;;;6.03;3.15;;;;;;;-1.33;97.39;95204.00;5008618;28;20088;-77
2021/11/30 00:37:41;;;;;;;8.50;3.95;;;;;;;-1.41;98.49;95206.78;5028378;28;20443;-77
2021/11/30 00:40:07;;;;;;;6.13;3.00;;;;;;;-1.36;98.95;95213.97;5027998;28;20044;-78
2021/11/30 00:42:34;;;;;;;5.22;2.58;;;;;;;-1.35;97.34;95205.19;5026300;28;20041;-77
2021/11/30 00:45:01;;;;;;;4.88;2.90;;;;;;;-1.41;99.04;95207.59;5024801;28;20052;-77
2021/11/30 00:47:30;;;;;;;6.80;3.45;;;;;;;-1.37;99.04;95207.19;5026959;28;20108;-77
2021/11/30 00:49:58;;;;;;;8.35;3.17;;;;;;;-1.38;99.29;95211.53;5028342;28;20045;-77
2021/11/30 00:52:24;;;;;;;4.75;2.63;;;;;;;-1.33;98.21;95214.34;5028212;28;20053;-77
2021/11/30 00:54:50;;;;;;;6.72;2.53;;;;;;;-1.41;99.67;95206.78;5003651;28;20049;-77
2021/11/30 00:57:18;;;;;;;5.35;2.67;;;;;;;-1.41;99.15;95222.28;4996273;28;20046;-77
2021/11/30 00:59:43;;;;;;;7.10;2.53;;;;;;;-1.36;99.39;95219.13;5027017;28;20499;-77
2021/11/30 01:02:09;;;;;;;5.47;2.88;;;;;;;-1.37;99.32;95218.31;5009864;28;20120;-78
2021/11/30 01:04:35;;;;;;;5.50;2.78;;;;;;;-1.43;99.90;95225.06;5009890;28;20052;-77
2021/11/30 01:07:00;;;;;;;7.28;2.90;;;;;;;-1.39;99.75;95217.72;5026552;28;20067;-78
2021/11/30 01:09:27;;;;;;;5.63;2.97;;;;;;;-1.38;99.34;95231.41;5027084;28;20475;-77
2021/11/30 01:11:53;;;;;;;4.60;2.50;;;;;;;-1.33;99.84;95234.97;5027989;28;20041;-78
2021/11/30 01:14:19;;;;;;;4.88;2.70;;;;;;;-1.42;100.00;95231.81;5026903;28;20049;-77
2021/11/30 01:16:45;;;;;;;6.57;2.97;;;;;;;-1.33;100.00;95244.53;5014869;28;20080;-77
2021/11/30 01:19:12;;;;;;;5.03;2.50;;;;;;;-1.34;100.00;95238.56;5013977;28;20046;-77
2021/11/30 01:21:40;;;;;;;3.95;2.30;;;;;;;-1.36;100.00;95237.19;5027687;28;20563;-77
2021/11/30 01:24:07;;;;;;;4.95;2.70;;;;;;;-1.30;100.00;95242.31;5005310;28;20598;-77
2021/11/30 01:26:34;;;;;;;4.95;2.72;;;;;;;-1.29;100.00;95238.75;5012555;28;20104;-77
2021/11/30 01:28:59;;;;;;;5.10;2.83;;;;;;;-1.30;100.00;95229.41;5025039;28;20503;-77
2021/11/30 01:31:25;;;;;;;4.68;2.45;;;;;;;-1.35;100.00;95237.00;5028006;28;20073;-78
2021/11/30 01:36:26;;;;;;;7.22;3.13;;;;;;;-1.30;99.81;95244.91;5277749;23;20042;-75
2021/11/30 01:38:51;;;;;;;6.15;2.85;;;;;;;-1.33;100.00;95242.72;5027453;28;20048;-74
2021/11/30 01:41:17;;;;;;;4.60;2.58;;;;;;;-1.23;98.90;95243.09;5026062;28;20049;-74
2021/11/30 01:43:43;;;;;;;4.60;2.85;;;;;;;-1.28;99.58;95247.28;5007741;28;20034;-75
2021/11/30 01:46:24;;;;;;;3.78;2.53;;;;;;;-1.22;99.08;95242.13;4993210;28;20947;-74
2021/11/30 01:51:34;;;;;;;5.97;2.90;;;;;;;-1.26;99.54;95253.84;5018775;28;20061;-74
2021/11/30 01:53:59;;;;;;;3.53;2.20;;;;;;;-1.22;99.45;95252.44;5014826;28;20050;-75
2021/11/30 01:56:26;;;;;;;4.43;2.42;;;;;;;-1.22;99.65;95249.88;5026185;28;20152;-75
2021/11/30 01:58:53;;;;;;;7.72;2.65;;;;;;;-1.19;98.96;95245.28;5011307;28;20034;-74
2021/11/30 02:01:20;;;;;;;5.93;3.42;;;;;;;-1.28;99.08;95253.25;5008668;28;20558;-74
2021/11/30 02:03:45;;;;;;;4.10;2.58;;;;;;;-1.24;99.30;95249.25;5016255;28;20045;-76
2021/11/30 02:06:12;;;;;;;4.85;2.67;;;;;;;-1.17;98.79;95248.47;5010516;28;20046;-74
2021/11/30 02:08:37;;;;;;;4.95;2.80;;;;;;;-1.20;99.77;95254.03;4991826;28;20176;-75
2021/11/30 02:11:03;;;;;;;5.35;2.30;;;;;;;-1.26;99.65;95251.25;5009316;28;20569;-75
2021/11/30 02:13:30;;;;;;;4.30;2.40;;;;;;;-1.30;100.00;95246.69;5011328;28;20069;-74
2021/11/30 02:15:58;;;;;;;4.18;2.35;;;;;;;-1.23;99.84;95244.91;4989875;28;20042;-74
2021/11/30 02:18:24;;;;;;;4.68;2.63;;;;;;;-1.20;100.00;95239.34;5009930;28;20045;-75
2021/11/30 02:20:54;;;;;;;3.85;2.33;;;;;;;-1.14;100.00;95242.91;5011830;28;20521;-74
2021/11/30 02:24:04;;;;;;;4.10;2.45;;;;;;;-1.22;100.00;95247.28;5014529;28;20659;-74
2021/11/30 02:26:11;;;;;;;4.72;2.38;;;;;;;-1.23;100.00;95240.53;4981250;28;20054;-74
2021/11/30 02:28:40;;;;;;;4.18;2.30;;;;;;;-1.25;100.00;95237.38;5009999;28;20045;-74
2021/11/30 02:31:07;;;;;;;4.68;2.50;;;;;;;-1.28;100.00;95235.19;5006672;28;20133;-74
2021/11/30 02:33:34;;;;;;;3.72;2.03;;;;;;;-1.19;99.58;95229.78;5009951;28;20064;-74
2021/11/30 02:36:00;;;;;;;4.25;2.33;;;;;;;-1.18;99.95;95231.38;5009660;28;20071;-75
2021/11/30 02:38:26;;;;;;;4.20;2.55;;;;;;;-1.17;99.79;95227.81;5009375;28;20115;-74
2021/11/30 02:40:52;;;;;;;3.80;2.28;;;;;;;-1.15;99.34;95236.13;5010668;28;20077;-74
2021/11/30 02:43:17;;;;;;;3.63;2.00;;;;;;;-1.24;100.00;95236.34;5009858;28;20098;-74
2021/11/30 02:45:43;;;;;;;3.83;1.90;;;;;;;-1.14;99.46;95227.41;5011378;28;20053;-74
2021/11/30 02:48:09;;;;;;;6.20;2.28;;;;;;;-1.12;99.33;95231.38;5010633;28;20041;-75
2021/11/30 02:50:52;;;;;;;3.60;1.92;;;;;;;-1.25;100.00;95227.03;4991988;28;20041;-74
2021/11/30 02:53:20;;;;;;;4.80;2.15;;;;;;;-1.22;100.00;95236.19;4992194;28;20042;-74
2021/11/30 02:55:46;;;;;;;4.68;2.55;;;;;;;-1.27;100.00;95239.34;5010814;28;20050;-74
2021/11/30 02:58:12;;;;;;;4.03;2.20;;;;;;;-1.20;100.00;95243.72;5009516;28;20093;-74
2021/11/30 03:00:37;;;;;;;4.78;2.20;;;;;;;-1.28;100.00;95248.09;5009734;28;20137;-74
2021/11/30 03:03:03;;;;;;;4.80;2.30;;;;;;;-1.26;100.00;95240.94;5008733;28;20566;-74
2021/11/30 03:05:28;;;;;;;3.45;2.00;;;;;;;-1.26;100.00;95235.75;5010293;28;20046;-75
2021/11/30 03:07:54;;;;;;;2.47;1.70;;;;;;;-1.23;100.00;95250.84;5003906;28;20042;-74
2021/11/30 03:10:20;;;;;;;3.33;2.03;;;;;;;-1.20;100.00;95256.63;5012136;28;20052;-75
2021/11/30 03:12:48;;;;;;;6.20;2.55;;;;;;;-1.30;100.00;95252.66;4991868;28;20156;-74
2021/11/30 03:15:21;;;;;;;5.53;2.28;;;;;;;-1.24;100.00;95253.63;4987490;28;20145;-74
2021/11/30 03:17:47;;;;;;;6.25;3.08;;;;;;;-1.22;100.00;95257.63;4986846;28;20049;-74
2021/11/30 03:20:14;;;;;;;3.97;2.50;;;;;;;-1.23;100.00;95257.81;5009886;28;20418;-75
2021/11/30 03:22:40;;;;;;;5.63;2.78;;;;;;;-1.28;100.00;95248.09;4991864;28;20038;-74
2021/11/30 03:25:08;;;;;;;5.20;2.80;;;;;;;-1.18;100.00;95239.13;5008885;28;20495;-74
2021/11/30 03:27:34;;;;;;;4.60;2.20;;;;;;;-1.20;100.00;95238.56;5006154;28;20053;-74
2021/11/30 03:30:02;;;;;;;5.70;2.78;;;;;;;-1.08;99.64;95242.91;5016591;28;20075;-74
2021/11/30 03:35:00;;;;;;;3.75;2.40;;;;;;;-1.11;99.26;95247.66;5009242;28;20585;-73
2021/11/30 03:37:26;;;;;;;5.70;2.80;;;;;;;-1.14;100.00;95242.91;5001762;28;20080;-74
2021/11/30 03:39:52;;;;;;;5.47;3.08;;;;;;;-1.13;100.00;95244.50;5009395;28;20042;-74
2021/11/30 03:42:18;;;;;;;4.75;2.80;;;;;;;-1.12;99.33;95240.91;5008644;28;20049;-74
2021/11/30 03:44:44;;;;;;;4.20;2.40;;;;;;;-1.03;99.33;95255.19;4995997;28;20041;-74
2021/11/30 03:47:10;;;;;;;4.95;2.13;;;;;;;-0.99;98.32;95246.06;4995878;28;20046;-74
2021/11/30 03:49:35;;;;;;;5.82;2.85;;;;;;;-1.09;99.08;95235.34;5008395;28;20426;-75
2021/11/30 03:52:01;;;;;;;2.97;2.13;;;;;;;-0.99;98.28;95251.22;5008911;28;20128;-75
2021/11/30 03:54:28;;;;;;;6.25;2.85;;;;;;;-1.00;97.90;95252.19;5009752;28;20045;-74
2021/11/30 03:56:54;;;;;;;3.83;2.30;;;;;;;-0.96;97.45;95255.97;5008260;28;20042;-74
2021/11/30 03:59:19;;;;;;;4.55;2.55;;;;;;;-1.05;97.80;95246.84;5009346;28;20566;-74
2021/11/30 04:01:45;;;;;;;3.85;2.42;;;;;;;-0.99;97.78;95256.38;5010361;28;20049;-74
2021/11/30 04:04:21;;;;;;;10.45;2.70;;;;;;;-0.94;97.21;95256.56;5012214;28;20570;-74
2021/11/30 04:06:49;;;;;;;5.70;2.80;;;;;;;-1.02;97.77;95256.78;4975959;28;20104;-74
2021/11/30 04:09:15;;;;;;;4.05;2.53;;;;;;;-0.90;96.53;95270.66;5008247;28;20616;-74
2021/11/30 04:11:41;;;;;;;4.03;2.28;;;;;;;-0.98;97.83;95263.13;5008057;28;20033;-74
2021/11/30 04:14:08;;;;;;;7.60;2.60;;;;;;;-1.07;98.08;95261.75;5010298;28;20180;-74
2021/11/30 04:16:34;;;;;;;5.97;2.53;;;;;;;-0.96;97.17;95271.47;5010361;28;20042;-74
2021/11/30 04:19:00;;;;;;;3.92;2.10;;;;;;;-0.93;97.08;95268.47;4997453;28;20052;-74
2021/11/30 04:21:26;;;;;;;3.97;2.67;;;;;;;-1.07;98.07;95282.41;5017770;28;20046;-74
2021/11/30 04:23:53;;;;;;;5.47;2.72;;;;;;;-0.94;97.39;95269.47;5006210;28;20048;-74
2021/11/30 04:26:19;;;;;;;3.45;2.33;;;;;;;-0.98;97.74;95278.63;5008903;28;20046;-75
2021/11/30 04:28:45;;;;;;;4.57;2.25;;;;;;;-1.04;98.20;95269.09;5005932;28;20100;-74
2021/11/30 04:31:11;;;;;;;5.32;2.05;;;;;;;-1.02;98.15;95282.63;4986981;28;20042;-74
2021/11/30 04:33:37;;;;;;;7.38;2.80;;;;;;;-0.99;97.91;95266.72;4995653;28;20048;-75
2021/11/30 04:36:06;;;;;;;4.55;2.47;;;;;;;-1.08;98.27;95265.31;5019804;28;20049;-74
2021/11/30 04:38:31;;;;;;;3.78;2.33;;;;;;;-1.00;97.91;95269.50;5005524;28;20050;-74
2021/11/30 04:40:57;;;;;;;4.05;2.38;;;;;;;-1.00;97.06;95270.28;5011401;28;20057;-74
2021/11/30 04:43:23;;;;;;;9.48;2.50;;;;;;;-1.05;96.72;95267.50;5007339;28;20049;-74
2021/11/30 04:48:17;;;;;;;5.38;2.33;;;;;;;-0.95;95.77;95275.66;4997433;28;20053;-74
2021/11/30 04:50:47;;;;;;;4.50;2.42;;;;;;;-0.90;95.09;95281.00;4994384;28;20045;-75
2021/11/30 04:53:12;;;;;;;7.13;2.45;;;;;;;-0.93;95.48;95281.41;5007169;28;20173;-74
2021/11/30 04:55:38;;;;;;;4.88;2.25;;;;;;;-1.01;95.95;95271.28;5007305;28;20064;-74
2021/11/30 04:58:05;;;;;;;6.47;2.50;;;;;;;-0.98;95.30;95278.63;5017247;28;20070;-74
2021/11/30 05:00:32;;;;;;;3.15;1.90;;;;;;;-0.93;95.19;95281.41;4988648;28;20734;-73
2021/11/30 05:02:58;;;;;;;4.50;2.10;;;;;;;-1.02;95.41;95281.81;5005652;28;20092;-74
2021/11/30 05:05:24;;;;;;;4.13;2.13;;;;;;;-0.94;94.86;95284.97;5012121;28;20048;-75
2021/11/30 05:07:50;;;;;;;5.22;2.40;;;;;;;-0.93;94.76;95278.81;5001068;28;20050;-74
2021/11/30 05:10:18;;;;;;;3.35;2.15;;;;;;;-0.93;93.91;95280.63;5007140;28;20042;-74
2021/11/30 05:12:45;;;;;;;6.03;2.50;;;;;;;-1.01;95.02;95286.78;5014132;28;20682;-74
2021/11/30 05:15:11;;;;;;;4.38;2.00;;;;;;;-0.90;93.23;95286.16;5007631;28;20042;-74
2021/11/30 05:17:37;;;;;;;3.83;2.38;;;;;;;-0.96;92.67;95276.63;4999103;28;20514;-74
2021/11/30 05:20:04;;;;;;;3.00;1.98;;;;;;;-0.88;93.16;95279.00;5012142;28;20046;-74
2021/11/30 05:22:30;;;;;;;5.13;1.83;;;;;;;-0.92;92.75;95280.41;4992030;28;20050;-74
2021/11/30 05:24:56;;;;;;;6.50;2.10;;;;;;;-0.90;91.68;95278.41;5005258;28;20050;-74
2021/11/30 05:27:22;;;;;;;5.18;2.40;;;;;;;-0.96;91.99;95279.22;5025449;28;20041;-75
2021/11/30 05:29:47;;;;;;;3.67;1.88;;;;;;;-0.90;90.80;95275.81;5010989;28;20048;-75
2021/11/30 05:32:13;;;;;;;4.22;2.45;;;;;;;-0.96;91.33;95270.66;5023525;28;20049;-74
2021/11/30 05:34:39;;;;;;;2.83;1.90;;;;;;;-0.95;91.15;95280.81;5004557;28;20125;-75
2021/11/30 05:37:05;;;;;;;3.58;2.42;;;;;;;-0.89;91.49;95277.41;5007006;28;20050;-74
2021/11/30 05:39:30;;;;;;;4.72;2.17;;;;;;;-0.96;91.21;95266.31;5027634;28;20041;-75
2021/11/30 05:41:56;;;;;;;6.85;2.78;;;;;;;-0.94;90.92;95269.47;5025711;28;20064;-74
2021/11/30 05:44:21;;;;;;;8.02;2.80;;;;;;;-0.90;90.77;95270.66;5002359;28;20096;-75
2021/11/30 05:46:49;;;;;;;6.22;2.00;;;;;;;-0.91;91.17;95263.88;5002772;28;20042;-74
2021/11/30 05:49:15;;;;;;;4.63;2.30;;;;;;;-0.90;90.46;95270.66;5005540;28;20050;-74
2021/11/30 05:51:40;;;;;;;4.68;2.55;;;;;;;-0.97;91.84;95262.13;5018234;28;20088;-74
2021/11/30 05:54:06;;;;;;;2.35;1.75;;;;;;;-0.94;91.17;95269.47;4994903;28;20038;-74
2021/11/30 05:56:32;;;;;;;6.32;2.40;;;;;;;-0.90;90.16;95265.47;4996533;28;20429;-74
2021/11/30 05:58:58;;;;;;;10.63;2.70;;;;;;;-1.01;90.88;95258.34;5014329;28;20038;-74
2021/11/30 06:01:30;;;;;;;5.68;2.40;;;;;;;-0.95;90.89;95251.59;4993435;28;20069;-74
2021/11/30 06:03:59;;;;;;;7.70;2.40;;;;;;;-0.99;90.03;95251.22;4989955;28;20068;-74
2021/11/30 06:06:27;;;;;;;5.47;2.53;;;;;;;-1.04;90.96;95253.59;5008400;28;20502;-74
2021/11/30 06:08:53;;;;;;;5.50;2.20;;;;;;;-1.01;90.21;95248.03;5011413;28;20214;-74
2021/11/30 06:11:19;;;;;;;4.32;2.08;;;;;;;-1.05;90.31;95244.25;5011314;28;20556;-74
2021/11/30 06:13:45;;;;;;;4.35;2.70;;;;;;;-1.09;90.95;95246.47;5009445;28;20053;-74
2021/11/30 06:16:10;;;;;;;2.97;1.90;;;;;;;-1.03;89.90;95229.38;5007663;28;20073;-75
2021/11/30 06:18:36;;;;;;;5.57;2.70;;;;;;;-1.04;90.31;95227.78;4996838;28;20128;-74
2021/11/30 06:21:02;;;;;;;5.70;2.20;;;;;;;-1.05;90.69;95236.50;5010835;28;20622;-74
2021/11/30 06:23:27;;;;;;;7.05;2.95;;;;;;;-1.17;90.99;95232.97;5010054;28;20037;-74
2021/11/30 06:25:53;;;;;;;6.95;2.92;;;;;;;-1.10;91.52;95233.75;4991917;28;20038;-74
2021/11/30 06:28:19;;;;;;;4.40;2.40;;;;;;;-1.08;91.18;95236.91;5006681;28;20194;-75
2021/11/30 06:30:45;;;;;;;5.72;2.70;;;;;;;-1.00;89.64;95249.63;5016954;28;20038;-74
2021/11/30 06:33:11;;;;;;;2.85;1.83;;;;;;;-0.99;89.52;95240.88;5020920;28;20048;-74
2021/11/30 06:35:37;;;;;;;6.40;3.10;;;;;;;-0.98;89.67;95232.13;5017559;28;20116;-74
2021/11/30 06:38:03;;;;;;;5.75;2.42;;;;;;;-1.03;90.83;95228.56;4982570;28;20045;-75
2021/11/30 06:40:29;;;;;;;8.65;3.20;;;;;;;-1.01;90.20;95240.28;5010133;28;20057;-74
2021/11/30 06:42:55;;;;;;;4.65;2.20;;;;;;;-1.05;90.09;95242.47;5009432;28;20041;-75
2021/11/30 06:45:20;;;;;;;3.47;2.05;;;;;;;-0.92;89.37;95236.50;4994769;28;20096;-74
2021/11/30 06:47:46;;;;;;;6.35;2.30;;;;;;;-0.91;89.34;95238.06;5008777;28;20045;-75
2021/11/30 06:50:12;;;;;;;4.20;2.20;;;;;;;-0.92;89.12;95240.84;5014075;28;20038;-74
2021/11/30 06:52:38;;;;;;;3.38;1.83;;;;;;;-0.91;88.77;95250.19;5008152;28;20049;-74
2021/11/30 06:55:08;;;;;;;5.43;2.35;;;;;;;-0.95;89.21;95252.41;4999528;28;20046;-74
2021/11/30 06:57:35;;;;;;;5.82;2.55;;;;;;;-0.93;88.68;95252.19;5008207;28;20613;-75
2021/11/30 07:00:04;;;;;;;3.97;2.25;;;;;;;-0.85;88.15;95233.88;5007215;28;20042;-74
2021/11/30 07:02:30;;;;;;;6.68;2.35;;;;;;;-0.84;87.70;95242.44;5010753;28;20038;-75
2021/11/30 07:04:58;;;;;;;7.03;2.60;;;;;;;-0.92;88.81;95246.81;5005951;28;20041;-74
2021/11/30 07:10:23;;;;;;;5.05;2.13;;;;;;;-0.83;87.35;95244.81;5008884;28;20033;-74
2021/11/30 07:15:33;;;;;;;3.58;1.92;;;;;;;-0.80;86.55;95238.44;5007472;28;20049;-74
2021/11/30 07:18:00;;;;;;;7.07;2.25;;;;;;;-0.77;85.87;95233.66;4991376;28;20045;-74
2021/11/30 07:20:26;;;;;;;5.57;2.28;;;;;;;-0.78;85.88;95233.84;5003979;28;20045;-75
2021/11/30 07:22:55;;;;;;;3.78;2.42;;;;;;;-0.77;86.80;95227.69;4993080;28;20046;-74
2021/11/30 07:25:21;;;;;;;4.95;2.35;;;;;;;-0.73;85.08;95226.28;5001268;28;20060;-73
2021/11/30 07:27:47;;;;;;;5.57;2.08;;;;;;;-0.72;85.46;95225.28;5007450;28;20049;-71
2021/11/30 07:30:12;;;;;;;4.40;2.10;;;;;;;-0.69;85.00;95224.84;5007480;28;20066;-71
2021/11/30 07:32:38;;;;;;;3.90;2.00;;;;;;;-0.70;86.03;95220.72;5002406;28;20034;-73
2021/11/30 07:35:06;;;;;;;5.82;2.40;;;;;;;-0.69;85.62;95209.34;5003013;28;20046;-75
2021/11/30 07:37:32;;;;;;;3.78;2.15;;;;;;;-0.73;85.69;95218.53;5005489;28;20034;-72
2021/11/30 07:39:58;;;;;;;7.35;2.20;;;;;;;-0.69;84.69;95222.28;5002071;28;22630;-71
2021/11/30 07:42:24;;;;;;;4.05;2.38;;;;;;;-0.72;84.95;95220.09;5004589;28;20046;-72
2021/11/30 07:44:50;;;;;;;4.88;2.17;;;;;;;-0.66;84.90;95208.97;5000732;28;20045;-71
2021/11/30 07:47:17;;;;;;;10.25;2.05;;;;;;;-0.71;84.77;95206.19;5006010;28;20096;-72
2021/11/30 07:49:43;;;;;;;10.63;2.28;;;;;;;-0.73;85.11;95203.81;4999995;28;20730;-75
2021/11/30 07:52:11;;;;;;;7.70;2.08;;;;;;;-0.74;85.13;95211.78;5003805;28;20050;-74
2021/11/30 07:54:36;;;;;;;4.63;1.73;;;;;;;-0.80;86.10;95202.28;5004514;28;20042;-75
2021/11/30 07:57:02;;;;;;;10.52;2.03;;;;;;;-0.81;86.19;95200.69;5000162;28;20468;-74
2021/11/30 07:59:28;;;;;;;11.25;2.35;;;;;;;-0.75;86.88;95200.66;4995178;28;20042;-74
2021/11/30 08:01:53;;;;;;;5.00;1.70;;;;;;;-0.75;85.29;95189.50;5001887;28;20042;-75
2021/11/30 08:04:19;;;;;;;3.35;2.15;;;;;;;-0.71;85.13;95195.84;5006383;28;20042;-75
2021/11/30 08:06:44;;;;;;;8.20;1.92;;;;;;;-0.79;86.58;95178.81;5004774;28;20070;-77
2021/11/30 08:09:10;;;;;;;3.35;1.67;;;;;;;-0.79;85.43;95172.84;5006882;28;20046;-74
2021/11/30 08:11:36;;;;;;;3.17;1.67;;;;;;;-0.75;85.49;95174.00;5005233;28;20045;-76
2021/11/30 08:14:02;;;;;;;3.92;1.85;;;;;;;-0.84;85.92;95155.38;4998678;28;20044;-75
2021/11/30 08:16:27;;;;;;;1.08;0.90;;;;;;;-0.75;84.57;95158.50;4977011;28;20058;-75
2021/11/30 08:18:53;;;;;;;2.03;1.25;;;;;;;-0.75;85.89;95161.09;5002739;28;20038;-77
2021/11/30 08:21:18;;;;;;;1.10;1.00;;;;;;;-0.65;83.16;95176.16;4995368;28;20062;-75
2021/11/30 08:23:44;;;;;;;2.20;0.93;;;;;;;-0.66;84.44;95157.28;5007928;28;20059;-76
2021/11/30 08:26:12;;;;;;;3.40;1.35;;;;;;;-0.62;82.73;95163.59;5004790;28;20124;-76
2021/11/30 08:28:39;;;;;;;1.90;1.40;;;;;;;-0.62;83.27;95163.59;5007375;28;20686;-75
2021/11/30 08:31:05;;;;;;;4.35;1.45;;;;;;;-0.58;82.11;95136.34;5003803;28;20605;-75
2021/11/30 08:33:30;;;;;;;4.35;1.30;;;;;;;-0.57;81.35;95135.34;4989706;28;20033;-75
2021/11/30 08:35:56;;;;;;;2.28;1.63;;;;;;;-0.54;83.29;95134.94;5002418;28;20497;-75
2021/11/30 08:38:23;;;;;;;3.55;1.70;;;;;;;-0.54;81.93;95134.94;4994535;28;20038;-75
2021/11/30 08:40:49;;;;;;;3.97;1.90;;;;;;;-0.55;82.96;95127.38;5002901;28;20050;-75
2021/11/30 08:43:15;;;;;;;3.53;1.48;;;;;;;-0.60;81.84;95120.25;5002026;28;20106;-75
2021/11/30 08:45:41;;;;;;;4.63;1.70;;;;;;;-0.59;83.36;95150.28;4989041;28;20151;-75
2021/11/30 08:48:07;;;;;;;3.97;1.70;;;;;;;-0.65;82.91;95133.00;5005793;28;20049;-75
2021/11/30 08:50:34;;;;;;;2.55;1.50;;;;;;;-0.67;84.33;95129.84;5005509;28;20113;-74
2021/11/30 08:53:00;;;;;;;6.90;1.90;;;;;;;-0.70;85.19;95109.59;5006047;28;20042;-75
2021/11/30 08:55:25;;;;;;;3.70;1.90;;;;;;;-0.76;84.52;95138.81;4979523;28;20479;-75
2021/11/30 08:57:52;;;;;;;5.32;2.08;;;;;;;-0.83;87.01;95114.81;5008105;28;20108;-75
2021/11/30 09:00:22;;;;;;;2.60;1.55;;;;;;;-0.73;85.75;95122.94;5009288;28;20391;-75
2021/11/30 09:02:48;;;;;;;4.43;1.88;;;;;;;-0.80;86.98;95129.94;4998164;28;20532;-75
2021/11/30 09:05:16;;;;;;;4.05;1.88;;;;;;;-0.92;88.47;95117.66;5003788;28;20076;-76
2021/11/30 09:07:41;;;;;;;3.33;1.60;;;;;;;-1.07;90.26;95119.72;5008486;28;20068;-74
2021/11/30 09:10:07;;;;;;;2.45;1.38;;;;;;;-1.07;91.04;95130.03;5011723;28;20049;-75
2021/11/30 09:12:33;;;;;;;2.05;1.33;;;;;;;-1.25;93.05;95121.19;5011726;28;20057;-75
2021/11/30 09:14:59;;;;;;;3.47;1.25;;;;;;;-1.20;92.75;95124.94;5012341;28;20041;-75
2021/11/30 09:17:25;;;;;;;3.30;1.38;;;;;;;-1.20;92.96;95117.19;5008447;28;20070;-75
2021/11/30 09:19:50;;;;;;;1.20;1.05;;;;;;;-1.28;93.86;95093.19;5008981;28;20050;-74
2021/11/30 09:22:17;;;;;;;3.75;1.80;;;;;;;-1.22;94.65;95102.69;5008589;28;20068;-77
2021/11/30 09:24:43;;;;;;;5.45;1.80;;;;;;;-1.15;93.61;95094.13;5011461;28;20041;-74
2021/11/30 09:27:08;;;;;;;3.85;1.23;;;;;;;-1.18;94.75;95102.28;5009440;28;20052;-74
2021/11/30 09:29:34;;;;;;;2.20;1.20;;;;;;;-1.17;93.80;95078.03;5011531;28;20776;-76
2021/11/30 09:31:59;;;;;;;2.22;1.10;;;;;;;-1.28;95.60;95082.88;5007130;28;20050;-74
2021/11/30 09:34:25;;;;;;;7.05;1.30;;;;;;;-1.31;95.42;95087.63;5007245;28;20172;-75
2021/11/30 09:36:55;;;;;;;2.15;1.27;;;;;;;-1.36;94.83;95077.91;5000292;28;20478;-75
2021/11/30 09:39:21;;;;;;;6.38;1.40;;;;;;;-1.43;96.00;95072.00;4998368;28;20045;-74
2021/11/30 09:41:48;;;;;;;4.05;1.88;;;;;;;-1.38;96.86;95061.84;5010780;28;20038;-74
2021/11/30 09:44:16;;;;;;;2.10;1.30;;;;;;;-1.34;96.76;95077.72;5010153;28;20048;-73
2021/11/30 09:46:42;;;;;;;3.85;1.45;;;;;;;-1.32;96.45;95075.72;5007132;28;20042;-73
2021/11/30 09:49:09;;;;;;;8.05;1.70;;;;;;;-1.30;96.61;95078.91;5002454;28;20053;-74
2021/11/30 09:51:34;;;;;;;2.75;1.35;;;;;;;-1.32;97.51;95081.69;4989312;28;20845;-75
2021/11/30 09:54:00;;;;;;;1.25;1.05;;;;;;;-1.32;99.39;95071.34;4988901;28;20076;-74
2021/11/30 09:56:27;;;;;;;6.28;1.48;;;;;;;-1.41;99.81;95057.09;5004446;28;20130;-74
2021/11/30 09:58:53;;;;;;;2.08;1.13;;;;;;;-1.37;98.28;95047.94;5010784;28;20049;-74
2021/11/30 10:01:19;;;;;;;2.47;0.95;;;;;;;-1.35;98.87;95056.28;5002926;28;20631;-73
2021/11/30 10:03:44;;;;;;;5.25;1.25;;;;;;;-1.31;98.85;95052.28;5008531;28;20119;-74
2021/11/30 10:06:12;;;;;;;1.75;1.40;;;;;;;-1.29;98.13;95050.28;5008245;28;20518;-74
2021/11/30 10:08:46;;;;;;;1.95;1.10;;;;;;;-1.34;98.63;95044.16;5008970;28;20384;-75
2021/11/30 10:11:34;;;;;;;1.15;0.82;;;;;;;-1.31;97.21;95041.94;5007318;28;20054;-73
2021/11/30 10:14:14;;;;;;;3.03;1.42;;;;;;;-1.35;99.38;95014.97;5006628;28;20052;-75
2021/11/30 10:16:42;;;;;;;6.78;1.25;;;;;;;-1.39;100.00;95024.13;5004121;28;20057;-75
2021/11/30 10:19:07;;;;;;;2.55;0.93;;;;;;;-1.31;98.63;95016.13;4994153;28;20041;-75
2021/11/30 10:21:34;;;;;;;1.60;1.00;;;;;;;-1.41;100.00;95008.84;5009673;28;20072;-74
2021/11/30 10:24:03;;;;;;;1.85;1.05;;;;;;;-1.37;100.00;95006.63;5007382;28;20057;-70
2021/11/30 10:26:32;;;;;;;2.25;0.90;;;;;;;-1.41;100.00;94995.94;5004070;28;20487;-72
2021/11/30 10:29:11;;;;;;;2.35;1.33;;;;;;;-1.38;100.00;94974.06;4997925;28;20045;-72
2021/11/30 10:31:43;;;;;;;1.23;1.05;;;;;;;-1.34;99.90;94985.56;5007521;28;20046;-76
2021/11/30 10:34:14;;;;;;;1.67;1.15;;;;;;;-1.33;100.00;94986.38;5007016;28;20041;-73
2021/11/30 10:36:48;;;;;;;2.60;1.02;;;;;;;-1.24;99.10;94969.63;4995441;28;20050;-72
2021/11/30 10:39:19;;;;;;;4.05;1.13;;;;;;;-1.25;99.08;94968.84;5000775;28;20174;-72
2021/11/30 10:41:47;;;;;;;4.43;1.40;;;;;;;-1.18;97.90;94968.00;5009799;28;20038;-71
2021/11/30 10:44:14;;;;;;;2.60;1.17;;;;;;;-1.13;97.97;94952.69;5005938;28;20117;-74
2021/11/30 10:46:39;;;;;;;2.03;1.10;;;;;;;-1.13;97.35;94970.75;5005239;28;20789;-72
2021/11/30 10:49:05;;;;;;;1.33;1.08;;;;;;;-1.09;96.81;94966.78;5009799;28;20042;-72
2021/11/30 10:51:42;;;;;;;4.22;1.40;;;;;;;-1.05;97.02;94967.91;4974629;28;20830;-72
2021/11/30 10:54:08;;;;;;;3.00;1.10;;;;;;;-1.04;97.05;94959.16;4990066;28;20118;-72
2021/11/30 10:56:34;;;;;;;7.13;1.38;;;;;;;-1.02;97.96;94972.69;5008907;28;20058;-72
2021/11/30 10:58:59;;;;;;;1.77;1.13;;;;;;;-0.96;96.51;94951.16;5011179;28;20596;-74
2021/11/30 11:01:26;;;;;;;1.98;1.05;;;;;;;-0.93;95.88;94958.50;5005702;28;20064;-74
2021/11/30 11:04:04;;;;;;;2.35;0.98;;;;;;;-0.98;96.68;94945.41;4986309;28;20046;-73
2021/11/30 11:06:31;;;;;;;1.63;1.27;;;;;;;-0.93;97.07;94953.31;5003821;28;20038;-75
2021/11/30 11:09:04;;;;;;;1.00;0.93;;;;;;;-0.93;98.84;94942.22;4974987;28;20039;-72
2021/11/30 11:11:36;;;;;;;1.85;1.00;;;;;;;-0.98;98.34;94942.81;5008889;28;20729;-73
2021/11/30 11:14:05;;;;;;;2.00;0.70;;;;;;;-1.00;98.64;94934.50;5005407;28;20103;-75
2021/11/30 11:16:36;;;;;;;1.67;0.90;;;;;;;-1.00;100.00;94929.34;4991079;28;20108;-73
2021/11/30 11:19:08;;;;;;;1.75;1.10;;;;;;;-0.98;100.00;94931.72;4988433;28;20045;-73
2021/11/30 11:21:38;;;;;;;1.38;0.73;;;;;;;-0.98;100.00;94917.00;5006985;28;20041;-73
2021/11/30 11:24:13;;;;;;;0.95;0.80;;;;;;;-0.96;100.00;94915.00;4987940;28;20050;-71
2021/11/30 11:26:44;;;;;;;1.50;0.98;;;;;;;-0.91;100.00;94920.31;4998208;28;20400;-73
2021/11/30 11:29:15;;;;;;;2.55;1.00;;;;;;;-0.86;98.42;94899.03;5006757;28;20061;-73
2021/11/30 11:31:47;;;;;;;2.70;1.10;;;;;;;-0.83;98.78;94923.63;4985689;28;20527;-74
2021/11/30 11:34:15;;;;;;;1.90;1.17;;;;;;;-0.79;99.35;94909.28;4996748;28;20052;-73
2021/11/30 11:36:44;;;;;;;4.88;1.13;;;;;;;-0.81;99.50;94895.81;5000404;28;20038;-72
2021/11/30 11:39:09;;;;;;;3.70;1.45;;;;;;;-0.75;99.22;94920.78;5008206;28;20065;-72
2021/11/30 11:41:35;;;;;;;3.97;0.93;;;;;;;-0.72;98.03;94889.34;5003558;28;20037;-73
2021/11/30 11:44:00;;;;;;;1.70;1.20;;;;;;;-0.72;98.63;94889.34;4999487;28;20555;-74
2021/11/30 11:46:33;;;;;;;1.33;0.90;;;;;;;-0.67;97.44;94884.34;4998823;28;20046;-73